createdAt,value
2022-08-11T00:00:20.163Z,65.93
2022-08-11T00:05:20.105Z,66.97
2022-08-11T00:10:20.043Z,68.34
2022-08-11T00:15:19.962Z,67.80
2022-08-11T00:20:19.893Z,68.21
2022-08-11T00:25:19.884Z,66.77
2022-08-11T00:30:19.764Z,65.50
2022-08-11T00:35:52.533Z,66.23
2022-08-11T00:40:20.654Z,68.54
2022-08-11T00:45:19.568Z,69.18
2022-08-11T00:50:19.501Z,69.89
2022-08-11T00:55:19.491Z,68.85
2022-08-11T01:00:19.386Z,69.18
2022-08-11T01:05:19.313Z,69.28
2022-08-11T01:10:19.267Z,68.88
2022-08-11T01:15:19.222Z,69.31
2022-08-11T01:20:48.124Z,71.40
2022-08-11T01:25:20.247Z,72.21
2022-08-11T01:30:18.978Z,71.06
2022-08-11T01:35:18.930Z,71.50
2022-08-11T01:40:18.849Z,71.70
2022-08-11T01:45:18.777Z,71.30
2022-08-11T01:50:18.720Z,70.12
2022-08-11T01:55:18.660Z,69.68
2022-08-11T02:00:18.632Z,70.46
2022-08-11T02:05:18.529Z,72.75
2022-08-11T02:10:18.450Z,74.54
2022-08-11T02:15:18.391Z,74.84
2022-08-11T02:20:18.331Z,75.04
2022-08-11T02:25:18.260Z,74.94
2022-08-11T02:30:18.363Z,73.19
2022-08-11T02:35:18.121Z,72.99
2022-08-11T02:40:18.071Z,73.83
2022-08-11T02:45:17.992Z,74.33
2022-08-11T02:50:17.916Z,73.15
2022-08-11T02:55:44.478Z,74.10
2022-08-11T03:00:18.781Z,74.63
2022-08-11T03:05:17.758Z,75.18
2022-08-11T03:10:17.653Z,76.87
2022-08-11T03:15:17.592Z,76.77
2022-08-11T03:20:17.533Z,77.61
2022-08-11T03:25:17.453Z,77.92
2022-08-11T03:30:17.398Z,78.56
2022-08-11T03:35:21.327Z,78.56
2022-08-11T03:40:17.275Z,77.68
2022-08-11T03:45:17.251Z,76.43
2022-08-11T03:50:17.254Z,77.17
2022-08-11T03:55:17.112Z,75.92
2022-08-11T04:00:17.016Z,75.31
2022-08-11T04:05:16.977Z,76.03
2022-08-11T04:10:16.880Z,77.28
2022-08-11T04:15:16.820Z,76.63
2022-08-11T04:20:16.778Z,76.32
2022-08-11T04:25:16.684Z,75.62
2022-08-11T04:30:16.901Z,75.42
2022-08-11T04:35:16.554Z,75.18
2022-08-11T04:40:16.753Z,74.77
2022-08-11T04:45:16.400Z,74.33
2022-08-11T04:50:16.358Z,69.95
2022-08-11T04:55:16.279Z,62.43
2022-08-11T05:00:16.204Z,56.67
2022-08-11T05:05:16.150Z,52.57
2022-08-11T05:10:16.070Z,50.48
2022-08-11T05:15:16.033Z,48.34
2022-08-11T05:20:15.953Z,46.44
2022-08-11T05:26:44.735Z,45.72
2022-08-11T05:30:16.822Z,44.07
2022-08-11T05:35:28.309Z,43.26
2022-08-11T05:40:16.687Z,42.64
2022-08-11T05:45:15.905Z,42.72
2022-08-11T05:50:15.562Z,41.52
2022-08-11T05:55:15.530Z,41.20
2022-08-11T06:00:15.471Z,41.49
2022-08-11T06:05:15.431Z,42.44
2022-08-11T06:10:15.349Z,40.88
2022-08-11T06:15:15.275Z,41.10
2022-08-11T06:20:15.234Z,39.73
2022-08-11T06:25:15.180Z,38.81
2022-08-11T06:30:15.105Z,38.20
2022-08-11T06:35:15.042Z,37.10
2022-08-11T06:40:14.971Z,37.57
2022-08-11T06:45:14.940Z,36.75
2022-08-11T06:50:14.854Z,36.34
2022-08-11T06:55:55.763Z,36.24
2022-08-11T07:00:15.736Z,35.93
2022-08-11T07:05:14.685Z,35.41
2022-08-11T07:10:14.620Z,34.72
2022-08-11T07:15:14.558Z,34.92
2022-08-11T07:20:14.499Z,35.50
2022-08-11T07:25:14.502Z,35.00
2022-08-11T07:30:14.464Z,34.81
2022-08-11T07:35:14.348Z,34.78
2022-08-11T07:40:14.273Z,34.06
2022-08-11T07:45:14.226Z,33.75
2022-08-11T07:50:14.171Z,33.65
2022-08-11T07:55:14.148Z,33.25
2022-08-11T08:00:14.037Z,32.76
2022-08-11T08:05:13.989Z,32.78
2022-08-11T08:10:15.945Z,32.86
2022-08-11T08:15:13.871Z,32.92
2022-08-11T08:20:13.811Z,32.14
2022-08-11T08:25:13.767Z,31.90
2022-08-11T08:30:13.704Z,32.94
2022-08-11T08:35:13.635Z,32.94
2022-08-11T08:40:13.587Z,32.01
2022-08-11T08:45:13.518Z,31.62
2022-08-11T08:50:16.941Z,32.76
2022-08-11T08:55:13.399Z,32.51
2022-08-11T09:00:14.466Z,33.12
2022-08-11T09:05:13.277Z,33.84
2022-08-11T09:10:13.226Z,34.77
2022-08-11T09:15:13.180Z,34.56
2022-08-11T09:20:13.085Z,34.36
2022-08-11T09:25:13.054Z,35.38
2022-08-11T09:30:12.969Z,35.30
2022-08-11T09:35:12.912Z,34.87
2022-08-11T09:40:12.853Z,35.58
2022-08-11T09:45:12.821Z,36.00
2022-08-11T09:50:12.717Z,35.58
2022-08-11T09:55:12.643Z,35.71
2022-08-11T10:00:14.092Z,35.89
2022-08-11T10:05:12.555Z,36.42
2022-08-11T10:10:12.461Z,36.34
2022-08-11T10:15:12.438Z,35.81
2022-08-11T10:20:12.350Z,33.98
2022-08-11T10:25:12.298Z,33.29
2022-08-11T10:30:12.200Z,35.40
2022-08-11T10:35:12.154Z,34.74
2022-08-11T10:40:12.093Z,34.33
2022-08-11T10:45:12.013Z,34.33
2022-08-11T10:50:11.955Z,34.72
2022-08-11T10:55:11.935Z,33.97
2022-08-11T11:00:11.816Z,33.36
2022-08-11T11:05:11.768Z,33.34
2022-08-11T11:10:11.965Z,33.54
2022-08-11T11:15:17.720Z,33.34
2022-08-11T11:20:34.524Z,33.47
2022-08-11T11:25:12.521Z,32.57
2022-08-11T11:30:11.445Z,32.14
2022-08-11T11:35:11.392Z,31.24
2022-08-11T11:40:11.325Z,30.45
2022-08-11T11:45:22.685Z,30.98
2022-08-11T11:50:12.541Z,30.10
2022-08-11T11:55:11.195Z,29.30
2022-08-11T12:00:11.041Z,29.32
2022-08-11T12:05:10.975Z,28.82
2022-08-11T12:10:10.947Z,28.80
2022-08-11T12:15:10.860Z,28.40
2022-08-11T12:20:31.583Z,27.81
2022-08-11T12:25:11.736Z,28.10
2022-08-11T12:30:10.687Z,27.53
2022-08-11T12:35:10.586Z,28.02
2022-08-11T12:40:16.310Z,27.91
2022-08-11T12:45:22.071Z,28.11
2022-08-11T12:50:22.770Z,28.20
2022-08-11T12:55:13.692Z,28.10
2022-08-11T13:00:10.416Z,28.00
2022-08-11T13:05:10.245Z,27.51
2022-08-11T13:10:11.431Z,28.50
2022-08-11T13:15:11.243Z,27.41
2022-08-11T13:20:10.184Z,28.61
2022-08-11T13:25:09.946Z,28.70
2022-08-11T13:30:10.867Z,28.69
2022-08-11T13:35:09.815Z,28.69
2022-08-11T13:40:09.742Z,29.39
2022-08-11T13:45:09.669Z,28.02
2022-08-11T13:50:09.610Z,28.91
2022-08-11T13:55:09.548Z,29.69
2022-08-11T14:00:09.472Z,30.09
2022-08-11T14:05:09.444Z,29.79
2022-08-11T14:10:09.354Z,30.40
2022-08-11T14:15:09.308Z,31.68
2022-08-11T14:20:37.804Z,31.29
2022-08-11T14:25:10.587Z,31.48
2022-08-11T14:30:09.073Z,31.29
2022-08-11T14:35:10.420Z,31.98
2022-08-11T14:40:08.962Z,31.68
2022-08-11T14:45:08.880Z,31.78
2022-08-11T14:50:11.168Z,31.68
2022-08-11T14:55:08.785Z,31.38
2022-08-11T15:00:08.674Z,31.50
2022-08-11T15:05:08.613Z,31.98
2022-08-11T15:10:15.763Z,31.90
2022-08-11T15:15:09.538Z,31.90
2022-08-11T15:20:08.468Z,32.31
2022-08-11T15:25:08.367Z,31.91
2022-08-11T15:30:08.480Z,32.10
2022-08-11T15:35:08.290Z,32.60
2022-08-11T15:40:08.212Z,32.31
2022-08-11T15:45:09.151Z,32.50
2022-08-11T15:50:11.855Z,31.82
2022-08-11T15:55:09.034Z,31.23
2022-08-11T16:00:07.971Z,32.42
2022-08-11T16:05:07.875Z,32.81
2022-08-11T16:10:09.407Z,32.83
2022-08-11T16:15:07.772Z,32.73
2022-08-11T16:20:07.683Z,32.43
2022-08-11T16:27:03.987Z,32.81
2022-08-11T16:30:08.560Z,32.83
2022-08-11T16:35:07.741Z,33.03
2022-08-11T16:40:07.459Z,33.34
2022-08-11T16:45:07.361Z,33.34
2022-08-11T16:50:07.310Z,33.84
2022-08-11T16:55:07.253Z,33.94
2022-08-11T17:00:07.234Z,34.74
2022-08-11T17:05:07.086Z,34.94
2022-08-11T17:10:31.838Z,35.06
2022-08-11T17:15:07.976Z,35.25
2022-08-11T17:20:39.956Z,36.35
2022-08-11T17:25:07.883Z,37.73
2022-08-11T17:30:07.369Z,37.53
2022-08-11T17:35:06.691Z,38.62
2022-08-11T17:40:06.810Z,37.35
2022-08-11T17:45:06.571Z,37.05
2022-08-11T17:50:16.791Z,38.44
2022-08-11T17:55:07.775Z,37.37
2022-08-11T18:00:06.375Z,37.87
2022-08-11T18:05:12.379Z,37.19
2022-08-11T18:10:07.249Z,37.90
2022-08-11T18:15:06.187Z,39.79
2022-08-11T18:20:06.117Z,38.81
2022-08-11T18:25:06.060Z,40.50
2022-08-11T18:30:06.002Z,40.62
2022-08-11T18:35:05.938Z,39.15
2022-08-11T18:40:05.882Z,39.35
2022-08-11T18:45:06.031Z,41.36
2022-08-11T18:50:05.893Z,41.55
2022-08-11T18:55:05.652Z,41.58
2022-08-11T19:00:05.586Z,43.46
2022-08-11T19:05:05.520Z,42.27
2022-08-11T19:10:05.457Z,42.19
2022-08-11T19:15:05.395Z,42.41
2022-08-11T19:20:05.388Z,44.60
2022-08-11T19:25:05.265Z,44.80
2022-08-11T19:30:13.051Z,44.82
2022-08-11T19:35:06.820Z,44.12
2022-08-11T19:40:05.062Z,45.12
2022-08-11T19:45:05.018Z,44.84
2022-08-11T19:50:05.041Z,45.89
2022-08-11T19:55:04.864Z,45.81
2022-08-11T20:00:04.818Z,45.18
2022-08-11T20:05:04.774Z,44.57
2022-08-11T20:10:06.575Z,45.36
2022-08-11T20:15:04.600Z,44.62
2022-08-11T20:20:04.570Z,44.07
2022-08-11T20:25:04.496Z,44.74
2022-08-11T20:30:04.405Z,44.17
2022-08-11T20:35:04.327Z,46.35
2022-08-11T20:40:04.326Z,47.37
2022-08-11T20:45:04.210Z,48.39
2022-08-11T20:50:04.153Z,46.80
2022-08-11T20:55:04.328Z,46.48
2022-08-11T21:00:05.026Z,46.50
2022-08-11T21:05:04.048Z,46.55
2022-08-11T21:10:09.896Z,46.55
2022-08-11T21:15:05.051Z,48.37
2022-08-11T21:20:08.006Z,47.67
2022-08-11T21:25:04.696Z,48.90
2022-08-11T21:30:03.654Z,49.19
2022-08-11T21:35:03.544Z,47.72
2022-08-11T21:40:03.580Z,47.65
2022-08-11T21:45:03.409Z,48.92
2022-08-11T21:50:03.354Z,50.99
2022-08-11T21:55:03.299Z,52.97
2022-08-11T22:00:03.511Z,52.94
2022-08-11T22:05:03.147Z,53.14
2022-08-11T22:10:34.254Z,52.75
2022-08-11T22:15:04.010Z,53.14
2022-08-11T22:20:02.946Z,53.25
2022-08-11T22:25:02.889Z,52.82
2022-08-11T22:30:03.812Z,54.40
2022-08-11T22:35:02.746Z,54.38
2022-08-11T22:40:03.331Z,52.52
2022-08-11T22:45:02.604Z,53.97
2022-08-11T22:50:02.544Z,55.66
2022-08-11T22:55:02.484Z,57.62
2022-08-11T23:00:02.482Z,58.42
2022-08-11T23:05:02.375Z,57.79
2022-08-11T23:10:02.295Z,58.22
2022-08-11T23:15:02.228Z,59.36
2022-08-11T23:20:13.268Z,56.84
2022-08-11T23:25:03.098Z,57.17
2022-08-11T23:30:02.038Z,58.40
2022-08-11T23:35:04.579Z,58.93
2022-08-11T23:40:02.917Z,58.00
2022-08-11T23:45:01.840Z,58.93
2022-08-11T23:50:01.785Z,57.90
2022-08-11T23:55:01.697Z,57.29
